createdAt,value
2023-01-03T00:09:37.186Z,50.29
2023-01-03T00:12:28.596Z,50.22
2023-01-03T00:14:58.492Z,50.30
2023-01-03T00:17:26.101Z,50.31
2023-01-03T00:19:53.694Z,50.19
2023-01-03T00:22:21.368Z,50.16
2023-01-03T00:24:50.407Z,50.16
2023-01-03T00:27:18.034Z,50.09
2023-01-03T00:29:45.629Z,50.02
2023-01-03T00:32:13.543Z,50.08
2023-01-03T00:34:41.257Z,50.05
2023-01-03T00:37:08.874Z,49.95
2023-01-03T00:39:36.487Z,50.01
2023-01-03T00:42:05.441Z,49.96
2023-01-03T00:44:33.087Z,49.91
2023-01-03T00:47:00.637Z,49.99
2023-01-03T00:49:28.285Z,50.00
2023-01-03T00:51:55.951Z,49.96
2023-01-03T00:54:23.668Z,50.05
2023-01-03T00:56:51.797Z,49.96
2023-01-03T00:59:21.145Z,50.13
2023-01-03T01:45:43.282Z,50.10
2023-01-03T01:48:12.288Z,50.00
2023-01-03T01:50:40.729Z,49.99
2023-01-03T01:53:08.721Z,49.92
2023-01-03T01:55:36.600Z,49.93
2023-01-03T01:58:04.349Z,50.01
2023-01-03T02:47:29.078Z,49.72
2023-01-03T02:49:56.746Z,49.58
2023-01-03T02:52:25.228Z,49.67
2023-01-03T02:54:54.395Z,49.65
2023-01-03T02:57:22.752Z,49.60
2023-01-03T02:59:50.904Z,49.69
2023-01-03T03:47:40.369Z,49.21
2023-01-03T03:50:09.299Z,49.31
2023-01-03T03:52:36.878Z,49.28
2023-01-03T03:55:05.297Z,49.32
2023-01-03T03:57:33.243Z,49.35
2023-01-03T04:00:01.969Z,49.36
2023-01-03T04:46:23.087Z,49.88
2023-01-03T04:48:51.049Z,50.06
2023-01-03T04:51:18.630Z,50.00
2023-01-03T04:53:46.471Z,49.93
2023-01-03T04:56:14.140Z,49.89
2023-01-03T04:58:41.733Z,49.58
2023-01-03T05:30:23.060Z,48.75
2023-01-03T05:32:50.656Z,48.77
2023-01-03T05:35:18.304Z,48.72
2023-01-03T05:37:45.950Z,48.89
2023-01-03T05:40:13.548Z,48.75
2023-01-03T05:42:41.123Z,48.76
2023-01-03T05:45:09.487Z,48.55
2023-01-03T05:47:38.430Z,48.59
2023-01-03T05:50:06.785Z,48.58
2023-01-03T05:52:34.415Z,48.65
2023-01-03T05:55:02.197Z,48.52
2023-01-03T05:57:35.249Z,48.79
2023-01-03T06:00:03.593Z,48.48
2023-01-03T06:02:33.515Z,48.59
2023-01-03T06:05:02.492Z,48.72
2023-01-03T06:07:31.212Z,48.55
2023-01-03T06:09:58.813Z,48.48
2023-01-03T06:12:27.348Z,48.61
2023-01-03T06:14:54.968Z,48.64
2023-01-03T06:17:40.233Z,48.66
2023-01-03T06:20:09.812Z,48.63
2023-01-03T06:22:37.404Z,48.71
2023-01-03T06:25:05.150Z,48.68
2023-01-03T06:27:32.796Z,48.81
2023-01-03T06:30:00.640Z,48.75
2023-01-03T06:32:28.260Z,48.73
2023-01-03T06:34:55.843Z,48.92
2023-01-03T06:37:24.735Z,48.74
2023-01-03T06:39:52.309Z,48.74
2023-01-03T06:42:37.578Z,48.69
2023-01-03T06:45:23.254Z,48.73
2023-01-03T06:48:08.198Z,48.68
2023-01-03T06:50:53.215Z,48.75
2023-01-03T06:53:23.993Z,48.63
2023-01-03T06:55:56.693Z,48.59
2023-01-03T06:58:24.672Z,48.51
2023-01-03T07:00:52.444Z,48.54
2023-01-03T07:03:20.044Z,48.57
2023-01-03T07:05:47.916Z,48.63
2023-01-03T07:08:15.516Z,48.72
2023-01-03T07:10:44.442Z,48.86
2023-01-03T07:13:29.680Z,49.01
2023-01-03T07:15:57.337Z,49.14
2023-01-03T07:18:26.184Z,49.39
2023-01-03T07:20:53.774Z,49.27
2023-01-03T07:23:21.409Z,49.26
2023-01-03T07:25:50.667Z,49.30
2023-01-03T07:28:18.665Z,49.31
2023-01-03T07:30:46.477Z,49.39
2023-01-03T07:33:14.664Z,49.27
2023-01-03T07:35:42.284Z,49.22
2023-01-03T07:38:09.911Z,49.28
2023-01-03T07:40:37.632Z,49.22
2023-01-03T07:43:24.484Z,49.22
2023-01-03T07:45:52.226Z,49.15
2023-01-03T07:48:19.831Z,49.17
2023-01-03T07:50:47.387Z,49.21
2023-01-03T07:53:16.724Z,49.25
2023-01-03T07:55:45.379Z,49.20
2023-01-03T07:58:14.330Z,49.31
2023-01-03T08:47:32.105Z,48.63
2023-01-03T08:49:59.756Z,48.68
2023-01-03T08:52:31.739Z,48.68
2023-01-03T08:55:02.279Z,48.67
2023-01-03T08:57:30.145Z,48.84
2023-01-03T08:59:57.789Z,48.81
2023-01-03T09:46:26.482Z,47.98
2023-01-03T09:48:55.110Z,47.98
2023-01-03T09:51:42.769Z,48.05
2023-01-03T09:54:29.167Z,48.11
2023-01-03T09:57:14.112Z,48.28
2023-01-03T09:59:59.397Z,48.51
2023-01-03T10:08:16.018Z,48.48
2023-01-03T10:10:49.315Z,48.34
2023-01-03T10:13:20.422Z,48.16
2023-01-03T10:15:50.114Z,47.97
2023-01-03T10:18:21.971Z,48.18
2023-01-03T10:20:50.200Z,48.25
2023-01-03T10:23:19.219Z,48.00
2023-01-03T10:25:47.354Z,48.27
2023-01-03T10:28:17.204Z,48.16
2023-01-03T10:31:02.237Z,48.18
2023-01-03T10:33:39.363Z,48.40
2023-01-03T10:36:08.124Z,48.70
2023-01-03T10:38:44.847Z,48.71
2023-01-03T10:41:17.529Z,48.57
2023-01-03T10:43:45.293Z,48.65
2023-01-03T10:46:15.296Z,48.45
2023-01-03T10:49:25.496Z,48.29
2023-01-03T10:51:35.725Z,48.18
2023-01-03T10:54:12.413Z,48.41
2023-01-03T10:56:40.000Z,48.10
2023-01-03T10:59:11.077Z,48.02
2023-01-03T11:01:38.890Z,47.91
2023-01-03T11:04:10.692Z,47.71
2023-01-03T11:06:38.465Z,47.54
2023-01-03T11:09:06.843Z,47.64
2023-01-03T11:11:36.142Z,47.52
2023-01-03T11:14:12.037Z,47.31
2023-01-03T11:16:39.794Z,47.22
2023-01-03T11:19:07.883Z,47.03
2023-01-03T11:21:37.457Z,46.94
2023-01-03T11:24:08.222Z,46.81
2023-01-03T11:26:43.839Z,46.85
2023-01-03T11:29:24.821Z,46.87
2023-01-03T11:31:53.728Z,46.74
2023-01-03T11:34:25.442Z,46.73
2023-01-03T11:36:53.679Z,46.88
2023-01-03T11:39:27.227Z,46.83
2023-01-03T11:41:59.304Z,46.82
2023-01-03T11:44:38.322Z,46.76
2023-01-03T11:47:09.975Z,46.66
2023-01-03T11:49:41.162Z,46.71
2023-01-03T11:52:14.283Z,46.65
2023-01-03T11:54:56.805Z,46.83
2023-01-03T11:57:27.170Z,46.71
2023-01-03T12:00:00.655Z,46.75
2023-01-03T12:02:46.288Z,46.74
2023-01-03T12:05:29.608Z,46.77
2023-01-03T12:07:59.787Z,46.71
2023-01-03T12:10:28.123Z,46.73
2023-01-03T12:13:05.217Z,46.65
2023-01-03T12:15:34.108Z,46.50
2023-01-03T12:18:02.273Z,46.28
2023-01-03T12:20:31.293Z,45.97
2023-01-03T12:23:00.497Z,45.88
2023-01-03T12:25:29.244Z,45.83
2023-01-03T12:27:58.050Z,45.64
2023-01-03T12:30:30.210Z,45.44
2023-01-03T12:32:58.546Z,45.48
2023-01-03T12:35:27.821Z,45.48
2023-01-03T12:37:55.787Z,45.38
2023-01-03T12:40:25.672Z,45.27
2023-01-03T12:42:56.883Z,45.24
2023-01-03T12:45:34.265Z,45.24
2023-01-03T12:48:06.604Z,45.21
2023-01-03T12:50:34.931Z,45.28
2023-01-03T12:53:04.214Z,45.20
2023-01-03T12:55:35.068Z,45.20
2023-01-03T12:58:24.030Z,45.15
2023-01-03T13:00:54.756Z,45.15
2023-01-03T13:03:25.310Z,45.12
2023-01-03T13:05:54.538Z,45.12
2023-01-03T13:08:25.238Z,44.92
2023-01-03T13:10:54.045Z,44.92
2023-01-03T13:13:22.257Z,45.01
2023-01-03T13:15:50.112Z,45.00
2023-01-03T13:18:36.079Z,44.96
2023-01-03T13:21:26.941Z,45.10
2023-01-03T13:23:58.278Z,45.04
2023-01-03T13:26:26.249Z,45.09
2023-01-03T13:28:54.674Z,45.08
2023-01-03T13:31:38.699Z,45.19
2023-01-03T13:34:21.458Z,45.26
2023-01-03T13:37:07.799Z,44.98
2023-01-03T13:39:40.559Z,45.03
2023-01-03T13:42:16.544Z,45.13
2023-01-03T13:44:44.523Z,45.08
2023-01-03T13:47:23.151Z,45.07
2023-01-03T13:49:54.012Z,45.09
2023-01-03T13:52:36.132Z,45.13
2023-01-03T13:55:05.891Z,45.03
2023-01-03T13:57:38.909Z,45.12
2023-01-03T14:00:11.894Z,45.05
2023-01-03T14:02:55.314Z,45.08
2023-01-03T14:05:33.387Z,45.14
2023-01-03T14:08:04.229Z,45.23
2023-01-03T14:11:02.434Z,45.23
2023-01-03T14:13:41.211Z,45.16
2023-01-03T14:16:19.245Z,45.20
2023-01-03T14:18:48.285Z,45.20
2023-01-03T14:21:23.432Z,45.23
2023-01-03T14:24:02.156Z,45.23
2023-01-03T14:26:30.302Z,45.30
2023-01-03T14:29:00.437Z,45.27
2023-01-03T14:31:28.730Z,45.15
2023-01-03T14:33:57.808Z,45.17
2023-01-03T14:36:25.891Z,45.12
2023-01-03T14:38:54.690Z,45.15
2023-01-03T14:41:26.856Z,45.10
2023-01-03T14:44:01.193Z,45.24
2023-01-03T14:46:29.441Z,45.30
2023-01-03T14:49:02.905Z,45.28
2023-01-03T14:51:32.388Z,45.23
2023-01-03T14:54:00.716Z,45.23
2023-01-03T14:56:28.698Z,45.35
2023-01-03T14:58:57.003Z,45.27
2023-01-03T15:01:27.230Z,45.14
2023-01-03T15:03:56.301Z,46.13
2023-01-03T15:06:24.495Z,46.46
2023-01-03T15:08:52.714Z,46.30
2023-01-03T15:11:25.241Z,46.25
2023-01-03T15:13:55.733Z,46.21
2023-01-03T15:16:26.376Z,46.11
2023-01-03T15:18:59.082Z,46.24
2023-01-03T15:21:27.538Z,46.17
2023-01-03T15:23:55.756Z,46.25
2023-01-03T15:26:24.766Z,46.46
2023-01-03T15:28:53.969Z,46.67
2023-01-03T15:31:27.086Z,46.62
2023-01-03T15:34:12.782Z,46.80
2023-01-03T15:36:41.231Z,46.72
2023-01-03T15:39:10.072Z,46.67
2023-01-03T15:42:12.754Z,46.80
2023-01-03T15:44:44.237Z,46.74
2023-01-03T15:47:14.125Z,46.96
2023-01-03T15:49:45.092Z,46.95
2023-01-03T15:52:13.781Z,47.18
2023-01-03T15:54:41.862Z,47.16
2023-01-03T15:57:11.392Z,47.27
2023-01-03T15:59:43.271Z,47.29
2023-01-03T16:02:14.460Z,47.48
2023-01-03T16:04:44.039Z,47.50
2023-01-03T16:07:11.885Z,47.51
2023-01-03T16:09:40.207Z,47.58
2023-01-03T16:12:08.773Z,47.55
2023-01-03T16:14:37.096Z,47.63
2023-01-03T16:17:05.177Z,47.46
2023-01-03T16:19:33.740Z,47.54
2023-01-03T16:22:33.863Z,47.48
2023-01-03T16:24:51.512Z,47.51
2023-01-03T16:27:20.343Z,47.59
2023-01-03T16:29:48.414Z,47.60
2023-01-03T16:32:18.805Z,47.58
2023-01-03T16:34:47.097Z,47.55
2023-01-03T16:37:16.614Z,47.57
2023-01-03T16:39:48.233Z,47.52
2023-01-03T16:42:16.381Z,47.47
2023-01-03T16:44:45.186Z,47.54
2023-01-03T16:47:14.244Z,47.56
2023-01-03T16:49:42.088Z,47.49
2023-01-03T16:52:11.959Z,47.60
2023-01-03T16:54:41.126Z,47.63
2023-01-03T16:57:10.653Z,47.55
2023-01-03T16:59:38.494Z,47.43
2023-01-03T17:02:06.712Z,47.67
2023-01-03T17:04:34.784Z,47.57
2023-01-03T17:07:02.992Z,47.58
2023-01-03T17:09:31.796Z,47.48
2023-01-03T17:12:01.204Z,47.60
2023-01-03T17:14:29.399Z,47.49
2023-01-03T17:17:00.250Z,47.56
2023-01-03T17:20:02.901Z,47.66
2023-01-03T17:22:16.387Z,47.57
2023-01-03T17:24:44.671Z,47.58
2023-01-03T17:27:15.266Z,47.59
2023-01-03T17:29:43.594Z,47.49
2023-01-03T17:32:14.673Z,47.53
2023-01-03T17:34:42.770Z,47.44
2023-01-03T17:37:12.286Z,47.47
2023-01-03T17:39:40.256Z,47.57
2023-01-03T17:42:13.739Z,47.57
2023-01-03T17:44:43.380Z,47.50
2023-01-03T17:47:38.468Z,47.52
2023-01-03T17:50:07.626Z,47.42
2023-01-03T17:52:36.318Z,47.50
2023-01-03T17:55:04.394Z,47.44
2023-01-03T17:57:32.358Z,47.53
2023-01-03T18:00:01.767Z,47.60
2023-01-03T18:02:38.050Z,47.49
2023-01-03T18:05:16.458Z,47.53
2023-01-03T18:07:46.676Z,47.56
2023-01-03T18:10:17.864Z,47.42
2023-01-03T18:12:45.835Z,47.44
2023-01-03T18:15:18.838Z,47.46
2023-01-03T18:17:47.040Z,47.45
2023-01-03T18:20:15.729Z,47.60
2023-01-03T18:22:44.052Z,47.52
2023-01-03T18:25:21.767Z,47.50
2023-01-03T18:27:51.520Z,47.50
2023-01-03T18:30:20.911Z,47.48
2023-01-03T18:32:48.872Z,47.54
2023-01-03T18:35:22.332Z,47.53
2023-01-03T18:37:54.884Z,47.59
2023-01-03T18:40:23.802Z,47.47
2023-01-03T18:43:10.035Z,47.56
2023-01-03T18:45:39.658Z,47.49
2023-01-03T18:48:07.733Z,47.46
2023-01-03T18:50:35.821Z,47.63
2023-01-03T18:53:04.563Z,47.48
2023-01-03T18:55:33.431Z,47.48
2023-01-03T18:58:02.124Z,47.49
2023-01-03T19:00:30.082Z,47.44
2023-01-03T19:03:00.436Z,47.57
2023-01-03T19:05:28.520Z,47.46
2023-01-03T19:07:56.725Z,47.50
2023-01-03T19:10:25.052Z,47.52
2023-01-03T19:12:53.395Z,47.48
2023-01-03T19:15:22.048Z,47.51
2023-01-03T19:17:49.604Z,47.53
2023-01-03T19:20:23.212Z,47.45
2023-01-03T19:22:54.121Z,47.45
2023-01-03T19:25:24.079Z,47.33
2023-01-03T19:27:53.222Z,47.45
2023-01-03T19:30:21.108Z,47.57
2023-01-03T19:32:50.373Z,47.43
2023-01-03T19:35:19.533Z,47.54
2023-01-03T19:37:47.179Z,47.46
2023-01-03T19:40:14.970Z,47.42
2023-01-03T19:42:48.396Z,47.43
2023-01-03T19:45:16.873Z,47.41
2023-01-03T19:47:44.813Z,47.33
2023-01-03T19:50:17.265Z,47.37
2023-01-03T19:52:46.279Z,47.41
2023-01-03T19:55:13.840Z,47.40
2023-01-03T19:57:41.599Z,47.35
2023-01-03T20:00:11.288Z,47.38
2023-01-03T20:02:40.785Z,47.45
2023-01-03T20:05:15.821Z,47.36
2023-01-03T20:07:43.634Z,47.33
2023-01-03T20:12:57.062Z,47.33
2023-01-03T20:15:25.256Z,47.24
2023-01-03T20:17:52.894Z,47.39
2023-01-03T20:20:20.932Z,47.46
2023-01-03T20:23:06.195Z,47.29
2023-01-03T20:25:34.705Z,47.37
2023-01-03T20:28:03.700Z,47.22
2023-01-03T20:30:31.964Z,47.32
2023-01-03T20:32:59.975Z,47.24
2023-01-03T20:38:21.284Z,47.25
2023-01-03T20:40:48.929Z,47.31
2023-01-03T20:43:19.199Z,47.14
2023-01-03T20:45:47.322Z,47.21
2023-01-03T20:48:20.855Z,47.41
2023-01-03T20:50:52.598Z,47.22
2023-01-03T20:53:20.524Z,47.16
2023-01-03T20:55:50.119Z,47.23
2023-01-03T20:58:19.548Z,47.20
2023-01-03T21:00:47.380Z,47.18
2023-01-03T21:03:15.336Z,47.25
2023-01-03T21:05:43.521Z,47.39
2023-01-03T21:08:30.378Z,47.25
2023-01-03T21:10:58.216Z,47.24
2023-01-03T21:13:27.335Z,47.31
2023-01-03T21:15:54.980Z,47.20
2023-01-03T21:18:22.613Z,47.18
2023-01-03T21:20:50.187Z,47.30
2023-01-03T21:23:18.063Z,47.30
2023-01-03T21:25:45.788Z,47.32
2023-01-03T21:28:13.591Z,47.40
2023-01-03T21:30:42.634Z,47.29
2023-01-03T21:33:11.350Z,47.35
2023-01-03T21:35:41.174Z,47.36
2023-01-03T21:38:09.832Z,47.31
2023-01-03T21:40:37.456Z,47.30
2023-01-03T21:43:05.672Z,47.42
2023-01-03T21:45:34.404Z,47.41
2023-01-03T21:48:03.740Z,47.40
2023-01-03T21:50:31.742Z,47.34
2023-01-03T21:52:59.574Z,47.20
2023-01-03T21:55:27.783Z,47.30
2023-01-03T21:57:55.397Z,47.26
2023-01-03T22:00:23.662Z,47.22
2023-01-03T22:03:09.400Z,47.25
2023-01-03T22:05:38.993Z,47.25
2023-01-03T22:08:07.228Z,47.14
2023-01-03T22:10:36.991Z,47.11
2023-01-03T22:13:05.476Z,47.11
2023-01-03T22:15:33.541Z,46.92
2023-01-03T22:18:01.759Z,46.90
2023-01-03T22:20:34.673Z,46.98
2023-01-03T22:23:08.360Z,46.92
2023-01-03T22:25:36.011Z,46.95
2023-01-03T22:28:03.890Z,46.86
2023-01-03T22:30:31.773Z,47.04
2023-01-03T22:32:59.373Z,46.94
2023-01-03T22:35:27.416Z,47.11
2023-01-03T22:37:56.571Z,47.07
2023-01-03T22:40:25.693Z,47.22
2023-01-03T22:42:53.336Z,47.21
2023-01-03T22:45:20.933Z,47.11
2023-01-03T22:47:48.572Z,46.99
2023-01-03T22:50:16.438Z,47.06
2023-01-03T22:52:44.279Z,47.25
2023-01-03T22:55:12.206Z,47.13
2023-01-03T22:57:41.151Z,47.16
2023-01-03T23:00:10.494Z,47.16
2023-01-03T23:02:41.939Z,47.30
2023-01-03T23:05:10.227Z,47.17
2023-01-03T23:07:39.342Z,47.25
2023-01-03T23:10:07.616Z,47.16
2023-01-03T23:12:52.829Z,47.15
2023-01-03T23:15:21.811Z,47.10
2023-01-03T23:17:58.687Z,47.06
2023-01-03T23:20:26.917Z,47.03
2023-01-03T23:22:59.700Z,47.06
2023-01-03T23:25:28.008Z,46.89
2023-01-03T23:27:55.589Z,46.78
2023-01-03T23:30:24.579Z,46.99
2023-01-03T23:32:52.184Z,46.91
2023-01-03T23:35:19.740Z,47.10
2023-01-03T23:37:48.352Z,47.03
2023-01-03T23:40:16.018Z,47.07
2023-01-03T23:42:43.861Z,47.00
2023-01-03T23:45:11.590Z,47.00
2023-01-03T23:47:40.593Z,46.95
2023-01-03T23:50:08.390Z,47.03
2023-01-03T23:52:36.006Z,47.13
2023-01-03T23:55:10.192Z,47.15
2023-01-03T23:57:39.944Z,47.17
